Time;durP1;ratioP1;P1;durP2;ratioP2;P2;SDS_P1;SDS_P2;PMS_P1;PMS_P2;Temp;Humidity;BMP_temperature;BMP_pressure;BME280_temperature;BME280_humidity;BME280_pressure;Samples;Min_cycle;Max_cycle;Signal;HPM_P1;HPM_P2
2021/01/13 00:01:55;;;;;;;14.32;4.53;;;3.80;91.10;;;4.12;73.71;100545.44;5003315;28;20078;-85
2021/01/13 00:04:22;;;;;;;15.32;4.13;;;3.80;90.80;;;4.11;74.04;100535.63;5002792;28;20053;-85
2021/01/13 00:06:50;;;;;;;16.85;5.00;;;3.80;91.10;;;4.11;74.16;100535.63;5002590;28;20061;-85
2021/01/13 00:09:16;;;;;;;22.35;5.53;;;3.80;91.10;;;4.09;74.33;100535.81;5001603;28;20061;-85
2021/01/13 00:11:43;;;;;;;18.20;4.90;;;3.80;90.80;;;4.12;74.20;100540.03;5002538;28;20395;-85
2021/01/13 00:14:10;;;;;;;13.10;4.47;;;3.80;90.90;;;4.19;74.19;100540.31;5002314;28;20078;-85
2021/01/13 00:16:37;;;;;;;24.77;5.13;;;3.80;91.10;;;4.16;73.74;100535.22;5001265;28;20038;-85
2021/01/13 00:19:04;;;;;;;16.55;5.05;;;3.70;90.90;;;4.09;73.98;100541.19;5001828;28;20053;-85
2021/01/13 00:21:31;;;;;;;18.08;5.63;;;3.70;90.80;;;4.06;74.19;100538.75;5001645;28;20050;-85
2021/01/13 00:23:57;;;;;;;18.20;5.50;;;3.70;91.00;;;4.10;73.83;100542.03;5001155;28;20054;-85
2021/01/13 00:26:25;;;;;;;14.70;5.10;;;3.70;91.10;;;3.95;73.82;100548.84;5002487;28;20486;-85
2021/01/13 00:28:52;;;;;;;19.63;5.53;;;3.70;91.00;;;3.91;74.60;100541.03;5002176;28;20038;-85
2021/01/13 00:31:20;;;;;;;15.23;4.65;;;3.60;91.00;;;3.92;74.63;100542.75;5002961;28;20034;-85
2021/01/13 00:33:48;;;;;;;14.27;4.50;;;3.60;91.00;;;3.89;74.50;100545.69;5001990;28;20069;-85
2021/01/13 00:36:21;;;;;;;14.48;5.10;;;3.60;91.00;;;3.90;74.30;100535.78;5001748;28;20049;-85
2021/01/13 00:38:48;;;;;;;18.85;4.80;;;3.60;91.00;;;3.94;74.59;100541.72;5001684;28;20050;-85
2021/01/13 00:41:15;;;;;;;17.45;4.88;;;3.60;91.00;;;3.98;74.48;100543.16;5001534;28;20066;-85
2021/01/13 00:43:42;;;;;;;15.13;4.95;;;3.60;91.20;;;3.93;74.46;100546.28;5002799;28;20069;-85
2021/01/13 00:46:09;;;;;;;14.82;5.03;;;3.60;91.10;;;3.83;74.05;100548.97;5002004;28;20478;-85
2021/01/13 00:48:36;;;;;;;15.82;5.18;;;3.60;91.00;;;3.80;74.02;100548.38;5001327;28;20570;-85
2021/01/13 00:51:04;;;;;;;17.92;5.38;;;3.60;91.00;;;3.82;74.86;100544.56;5001825;28;20046;-85
2021/01/13 00:53:31;;;;;;;16.77;4.72;;;3.60;91.10;;;3.88;74.69;100543.16;5001679;28;20052;-85
2021/01/13 00:55:57;;;;;;;19.35;5.80;;;3.60;91.00;;;3.86;74.59;100540.59;5001576;28;20089;-85
2021/01/13 00:58:24;;;;;;;21.30;6.07;;;3.50;91.10;;;3.88;74.07;100541.31;5002322;28;20046;-85
2021/01/13 01:00:51;;;;;;;18.23;6.03;;;3.50;91.20;;;3.84;74.18;100547.94;5002140;28;20074;-85
2021/01/13 01:03:18;;;;;;;19.48;5.65;;;3.60;91.30;;;3.88;74.59;100548.53;5001658;28;20545;-85
2021/01/13 01:05:45;;;;;;;19.35;4.93;;;3.60;91.40;;;3.85;74.65;100555.06;5002531;28;20058;-85
2021/01/13 01:08:13;;;;;;;19.42;5.78;;;3.50;91.20;;;3.82;74.53;100544.56;5003900;28;20069;-85
2021/01/13 01:10:40;;;;;;;20.38;5.47;;;3.50;91.30;;;3.88;74.09;100549.41;5002527;28;20049;-85
2021/01/13 01:13:07;;;;;;;21.50;5.70;;;3.50;91.40;;;3.88;74.45;100544.03;5003562;28;20604;-85
2021/01/13 01:15:34;;;;;;;13.80;5.20;;;3.50;91.50;;;3.79;73.98;100546.66;5002968;28;20054;-85
2021/01/13 01:18:01;;;;;;;18.63;5.13;;;3.50;91.10;;;3.72;75.00;100551.78;5003125;28;20053;-85
2021/01/13 01:20:28;;;;;;;17.73;5.88;;;3.50;91.40;;;3.82;74.96;100555.31;5002892;28;20529;-85
2021/01/13 01:22:56;;;;;;;13.98;5.63;;;3.50;91.40;;;3.86;74.77;100550.50;5002270;28;20069;-85
2021/01/13 01:25:26;;;;;;;19.13;5.60;;;3.50;91.50;;;3.85;74.61;100544.28;5002698;28;20070;-85
2021/01/13 01:27:54;;;;;;;14.65;5.07;;;3.40;91.30;;;3.79;74.40;100552.94;4984254;28;20055;-85
2021/01/13 01:30:23;;;;;;;22.13;5.88;;;3.40;91.10;;;3.82;74.57;100543.72;5001934;28;20051;-85
2021/01/13 01:32:50;;;;;;;22.15;5.97;;;3.50;91.30;;;3.75;74.26;100559.59;5001767;28;20065;-85
2021/01/13 01:35:18;;;;;;;19.15;5.75;;;3.50;91.30;;;3.75;74.22;100556.91;5001871;28;20043;-85
2021/01/13 01:37:45;;;;;;;23.45;6.03;;;3.40;91.20;;;3.75;73.99;100559.59;5001935;28;20106;-85
2021/01/13 01:40:14;;;;;;;11.55;4.95;;;3.40;91.30;;;3.68;74.28;100563.81;5000883;28;20078;-85
2021/01/13 01:42:47;;;;;;;17.00;6.32;;;3.40;91.20;;;3.68;74.90;100559.28;4983656;28;20061;-85
2021/01/13 01:45:17;;;;;;;14.73;5.72;;;3.40;91.30;;;3.65;74.89;100556.00;4999981;28;20054;-85
2021/01/13 01:48:15;;;;;;;13.38;5.63;;;3.40;91.50;;;3.67;74.73;100567.50;4982853;28;20487;-85
2021/01/13 01:50:44;;;;;;;16.83;5.32;;;3.40;91.20;;;3.66;74.98;100568.50;5001159;28;20066;-85
2021/01/13 01:53:49;;;;;;;17.08;5.70;;;3.40;91.20;;;3.67;75.04;100575.56;5001047;28;20495;-85
2021/01/13 01:56:26;;;;;;;16.33;5.30;;;3.40;91.20;;;3.63;74.45;100576.84;5001040;28;20070;-85
2021/01/13 01:59:02;;;;;;;17.17;5.68;;;3.40;91.30;;;3.60;75.02;100575.28;5001833;28;20116;-85
2021/01/13 02:01:37;;;;;;;18.08;5.72;;;3.30;91.30;;;3.61;75.38;100568.88;5001759;28;20265;-85
2021/01/13 02:04:16;;;;;;;19.52;6.07;;;3.40;91.50;;;3.59;75.07;100575.41;5000742;28;20038;-85
2021/01/13 02:07:33;;;;;;;14.45;5.63;;;3.40;91.50;;;3.61;75.10;100568.88;5001368;28;20486;-85
2021/01/13 02:10:03;;;;;;;16.55;5.50;;;3.40;91.40;;;3.64;74.95;100568.63;5001202;28;20073;-85
2021/01/13 02:12:37;;;;;;;18.83;6.18;;;3.40;91.50;;;3.66;75.63;100563.94;5000853;28;20078;-85
2021/01/13 02:15:07;;;;;;;15.02;5.50;;;3.40;91.60;;;3.67;75.24;100570.19;5001085;28;20093;-85
2021/01/13 02:17:37;;;;;;;14.18;4.97;;;3.40;91.80;;;3.73;74.93;100575.00;4983295;28;20525;-85
2021/01/13 02:20:16;;;;;;;14.45;4.88;;;3.40;91.70;;;3.69;75.53;100570.88;5001860;28;20603;-85
2021/01/13 02:23:04;;;;;;;16.08;5.38;;;3.40;91.90;;;3.71;75.39;100567.09;4983455;28;20061;-85
2021/01/13 02:26:35;;;;;;;15.02;4.90;;;3.40;91.80;;;3.75;74.96;100575.75;5001025;28;20043;-85
2021/01/13 02:29:26;;;;;;;16.17;4.90;;;3.40;91.70;;;3.66;74.47;100582.78;5000925;28;20050;-85
2021/01/13 02:32:04;;;;;;;15.98;4.95;;;3.60;91.70;;;3.67;75.08;100578.25;4998800;28;20054;-85
2021/01/13 02:34:52;;;;;;;11.80;4.97;;;3.40;91.60;;;3.65;74.78;100582.94;5001203;28;20105;-85
2021/01/13 02:37:44;;;;;;;12.23;5.05;;;3.40;91.20;;;3.65;74.54;100570.31;5000089;28;20046;-85
2021/01/13 02:40:18;;;;;;;13.15;4.88;;;3.40;91.30;;;3.71;74.55;100568.91;5001699;28;20077;-85
2021/01/13 02:43:04;;;;;;;12.45;4.85;;;3.50;91.60;;;3.70;74.79;100580.69;5001467;28;20047;-85
2021/01/13 02:45:36;;;;;;;18.13;6.03;;;3.50;91.30;;;3.63;74.76;100574.13;5000263;28;20259;-85
2021/01/13 02:48:18;;;;;;;25.42;5.97;;;3.40;91.00;;;3.70;74.28;100572.59;5000447;28;20054;-85
2021/01/13 02:50:55;;;;;;;17.63;5.45;;;3.40;91.50;;;3.68;74.58;100569.19;5000393;28;20066;-85
2021/01/13 02:53:56;;;;;;;19.77;6.15;;;3.40;91.40;;;3.60;75.32;100577.09;5000735;28;20154;-84
2021/01/13 02:56:44;;;;;;;15.30;5.43;;;3.40;91.30;;;3.62;75.08;100575.16;5000396;28;20047;-85
2021/01/13 02:59:14;;;;;;;14.75;5.55;;;3.40;91.50;;;3.62;74.87;100575.16;5000288;28;20065;-85
2021/01/13 03:01:44;;;;;;;17.80;5.60;;;3.40;91.60;;;3.61;75.60;100568.03;5000460;28;20130;-85
2021/01/13 03:04:13;;;;;;;16.02;5.88;;;3.40;91.70;;;3.70;75.64;100567.22;4997363;28;20038;-84
2021/01/13 03:06:46;;;;;;;14.95;5.95;;;3.40;91.90;;;3.76;74.84;100572.03;5003355;28;20046;-85
2021/01/13 03:09:14;;;;;;;18.42;6.68;;;3.40;91.80;;;3.71;75.40;100575.16;5004333;28;20046;-85
2021/01/13 03:11:43;;;;;;;16.77;5.57;;;3.40;91.60;;;3.77;74.90;100576.44;5003939;28;20053;-85
2021/01/13 03:14:21;;;;;;;14.82;5.40;;;3.50;92.00;;;3.77;75.03;100572.88;5004045;28;20053;-85
2021/01/13 03:17:03;;;;;;;14.93;5.20;;;3.50;91.80;;;3.79;74.69;100571.78;5003831;28;20097;-85
2021/01/13 03:19:52;;;;;;;10.93;5.22;;;3.50;91.90;;;3.76;74.78;100577.44;4986576;28;20050;-85
2021/01/13 03:22:29;;;;;;;16.58;5.63;;;3.50;91.80;;;3.79;74.98;100587.94;4985773;28;20043;-85
2021/01/13 03:25:03;;;;;;;18.65;5.43;;;3.50;91.90;;;3.73;75.66;100593.84;5004348;28;20066;-85
2021/01/13 03:27:33;;;;;;;18.02;6.15;;;3.60;91.90;;;3.70;74.93;100591.44;5003229;28;20057;-85
2021/01/13 03:30:04;;;;;;;14.25;5.57;;;3.60;91.60;;;3.64;75.33;100590.16;4986722;28;20046;-84
2021/01/13 03:32:45;;;;;;;18.67;5.32;;;3.60;91.80;;;3.76;75.89;100590.88;5003873;28;20495;-85
2021/01/13 03:35:14;;;;;;;21.48;6.03;;;3.50;92.10;;;3.75;75.88;100586.50;4986268;28;20053;-85
2021/01/13 03:37:57;;;;;;;14.70;5.53;;;3.60;92.00;;;3.75;75.92;100597.28;5003647;28;20077;-85
2021/01/13 03:40:27;;;;;;;18.00;6.15;;;3.60;92.20;;;3.76;76.30;100588.19;5004143;28;20062;-85
2021/01/13 03:42:57;;;;;;;15.10;5.68;;;3.60;92.30;;;3.82;76.16;100590.31;5004260;28;20089;-84
2021/01/13 03:45:35;;;;;;;15.02;5.72;;;3.70;92.40;;;3.84;75.91;100595.56;5003463;28;20049;-85
2021/01/13 03:48:36;;;;;;;16.63;6.13;;;3.70;92.20;;;3.76;76.10;100600.81;4985994;28;20058;-85
2021/01/13 03:51:05;;;;;;;15.90;5.50;;;3.70;92.00;;;3.77;75.72;100597.09;5003850;28;20468;-85
2021/01/13 03:53:40;;;;;;;20.67;5.40;;;3.70;91.80;;;3.81;75.27;100595.84;5003301;28;20085;-85
2021/01/13 03:56:11;;;;;;;22.17;5.95;;;3.70;91.50;;;3.78;75.03;100596.97;5003544;28;20058;-85
2021/01/13 03:58:50;;;;;;;19.80;5.45;;;3.60;91.30;;;3.70;75.60;100589.59;5004409;28;20046;-85
2021/01/13 04:01:51;;;;;;;18.48;6.50;;;3.70;91.30;;;3.76;75.50;100590.88;5003292;28;20097;-85
2021/01/13 04:04:49;;;;;;;14.13;6.00;;;3.60;91.30;;;3.72;75.08;100598.38;5002551;28;20074;-85
2021/01/13 04:07:17;;;;;;;18.73;6.20;;;3.60;91.40;;;3.68;75.59;100585.34;5002836;28;20151;-85
2021/01/13 04:09:45;;;;;;;17.35;5.65;;;3.60;91.40;;;3.66;76.13;100588.16;5001863;28;20077;-85
2021/01/13 04:12:15;;;;;;;20.50;6.70;;;3.70;91.30;;;3.76;75.05;100585.50;4984813;28;20133;-85
2021/01/13 04:14:55;;;;;;;20.83;5.75;;;3.60;91.10;;;3.79;75.50;100590.63;5002228;28;20076;-85
2021/01/13 04:17:24;;;;;;;21.48;6.53;;;3.60;91.50;;;3.72;75.06;100586.78;5002197;28;20042;-85
2021/01/13 04:19:53;;;;;;;25.00;6.57;;;3.60;91.30;;;3.76;75.57;100590.88;5002254;28;20088;-85
2021/01/13 04:22:25;;;;;;;14.50;6.03;;;3.60;91.50;;;3.83;75.96;100597.41;5002731;28;20073;-85
2021/01/13 04:24:54;;;;;;;14.77;6.25;;;3.60;91.70;;;3.85;74.96;100595.44;5002156;28;20042;-84
2021/01/13 04:27:22;;;;;;;23.75;6.88;;;3.60;91.80;;;3.80;75.32;100586.91;5002402;28;20046;-85
2021/01/13 04:29:49;;;;;;;18.00;7.63;;;3.70;91.90;;;3.80;75.99;100584.22;5002197;28;20069;-84
2021/01/13 04:32:16;;;;;;;17.02;7.32;;;3.60;91.90;;;3.79;76.15;100581.66;5003146;28;20800;-84
2021/01/13 04:34:44;;;;;;;19.70;7.82;;;3.70;92.00;;;3.85;76.24;100592.75;5002935;28;20065;-84
2021/01/13 04:37:12;;;;;;;22.17;7.82;;;3.70;92.20;;;3.87;76.40;100590.75;5002255;28;20038;-85
2021/01/13 04:39:40;;;;;;;21.17;7.90;;;3.70;92.30;;;3.89;75.93;100585.25;5002197;28;20046;-85
2021/01/13 04:42:12;;;;;;;15.65;7.22;;;3.70;92.20;;;3.95;75.67;100581.13;5001500;28;20486;-85
2021/01/13 04:45:04;;;;;;;19.48;7.97;;;3.70;92.30;;;3.95;76.02;100573.06;5002746;28;20149;-85
2021/01/13 04:47:50;;;;;;;16.05;7.28;;;3.80;92.40;;;3.91;76.26;100569.81;5002114;28;20050;-85
2021/01/13 04:50:21;;;;;;;18.58;7.80;;;3.70;92.20;;;3.83;76.44;100567.81;5002100;28;20101;-84
2021/01/13 04:52:56;;;;;;;21.65;7.68;;;3.80;92.10;;;3.85;75.63;100576.59;5001949;28;20046;-85
2021/01/13 04:55:25;;;;;;;19.67;7.22;;;3.70;92.10;;;3.84;76.44;100572.19;5002356;28;20066;-85
2021/01/13 04:58:47;;;;;;;18.40;7.38;;;3.70;92.20;;;3.82;75.82;100567.94;5000740;28;20058;-84
2021/01/13 05:02:09;;;;;;;20.08;7.72;;;3.70;92.20;;;3.81;76.38;100559.03;4995568;28;20093;-84
2021/01/13 05:05:03;;;;;;;17.40;7.90;;;3.70;92.20;;;3.79;76.39;100565.50;5002368;28;20057;-87
2021/01/13 05:07:38;;;;;;;20.02;7.80;;;3.70;92.20;;;3.70;76.52;100562.69;4994384;28;20045;-88
2021/01/13 05:10:12;;;;;;;18.77;7.53;;;3.70;92.30;;;3.75;76.90;100564.97;4995407;28;20117;-87
2021/01/13 05:12:57;;;;;;;25.02;8.25;;;3.70;92.70;;;3.79;76.66;100558.31;4996576;28;20045;-87
2021/01/13 05:15:27;;;;;;;17.77;7.57;;;3.70;92.80;;;3.79;77.21;100554.75;4993537;28;20082;-87
2021/01/13 05:18:13;;;;;;;20.50;7.43;;;3.70;93.00;;;3.85;76.91;100554.22;4976079;28;20047;-87
2021/01/13 05:20:41;;;;;;;19.20;7.85;;;3.80;93.00;;;3.82;77.50;100552.63;4976302;28;20043;-87
2021/01/13 05:23:09;;;;;;;17.63;7.68;;;3.80;93.10;;;3.82;77.61;100539.19;4993627;28;20097;-87
2021/01/13 05:25:50;;;;;;;25.13;8.25;;;3.80;93.10;;;3.79;77.66;100542.16;4975838;28;20042;-88
2021/01/13 05:28:20;;;;;;;20.83;9.10;;;3.80;93.10;;;3.87;77.36;100545.00;4992950;28;20049;-87
2021/01/13 05:30:50;;;;;;;20.63;9.20;;;3.80;93.10;;;3.87;77.51;100549.53;4993391;28;20109;-88
2021/01/13 05:33:20;;;;;;;30.45;13.27;;;3.90;93.20;;;3.87;77.53;100536.91;4994092;28;20043;-88
2021/01/13 05:35:51;;;;;;;33.72;15.68;;;3.80;93.20;;;3.95;77.81;100544.28;4975752;28;20093;-88
2021/01/13 05:38:45;;;;;;;24.00;10.68;;;3.90;93.50;;;4.01;77.69;100540.19;4975982;28;20049;-88
2021/01/13 05:41:14;;;;;;;20.25;9.40;;;3.90;93.50;;;4.03;77.82;100544.41;4993321;28;20038;-88
2021/01/13 05:43:44;;;;;;;19.05;8.35;;;3.90;93.50;;;4.03;77.55;100538.19;4975637;28;20050;-88
2021/01/13 05:46:13;;;;;;;14.52;8.23;;;3.90;93.50;;;3.99;77.93;100534.94;4975741;28;20046;-88
2021/01/13 05:48:43;;;;;;;20.65;8.60;;;3.90;93.50;;;4.00;77.63;100536.66;4975810;28;20086;-88
2021/01/13 05:51:10;;;;;;;17.92;8.30;;;4.00;93.50;;;3.94;78.03;100541.72;4975839;28;20045;-88
2021/01/13 05:53:38;;;;;;;22.40;8.10;;;4.00;93.50;;;3.97;78.19;100541.47;4992998;28;20074;-88
2021/01/13 05:56:07;;;;;;;21.77;8.02;;;4.00;93.50;;;4.02;77.99;100537.34;4975522;28;20042;-89
2021/01/13 05:58:35;;;;;;;20.27;8.48;;;4.00;93.50;;;4.04;78.36;100538.06;4993018;28;20124;-88
2021/01/13 06:01:03;;;;;;;24.70;8.90;;;4.10;93.60;;;4.04;78.32;100539.91;4975415;28;20097;-88
2021/01/13 06:03:31;;;;;;;16.15;8.25;;;4.10;93.50;;;4.04;78.09;100537.22;4975220;28;20109;-87
2021/01/13 06:06:00;;;;;;;23.52;8.32;;;4.10;93.60;;;4.02;78.82;100525.75;4992533;28;20073;-88
2021/01/13 06:08:31;;;;;;;18.40;8.20;;;4.10;93.80;;;4.08;78.42;100525.16;4992884;28;20074;-88
2021/01/13 06:11:01;;;;;;;19.13;8.80;;;4.10;93.90;;;4.13;78.25;100525.56;4975467;28;20043;-88
2021/01/13 06:13:31;;;;;;;22.10;10.23;;;4.10;94.10;;;4.17;78.35;100531.53;4993395;28;20078;-88
2021/01/13 06:16:02;;;;;;;23.52;9.90;;;4.10;94.20;;;4.12;78.78;100529.28;4994571;28;20073;-89
2021/01/13 06:18:31;;;;;;;21.08;9.82;;;4.10;94.10;;;4.11;78.67;100535.63;4996999;28;20057;-88
2021/01/13 06:21:07;;;;;;;26.25;10.98;;;4.20;94.20;;;4.16;78.90;100546.00;4994808;28;20078;-88
2021/01/13 06:23:44;;;;;;;22.08;10.30;;;4.20;94.40;;;4.17;79.08;100535.09;4995244;28;20049;-83
2021/01/13 06:26:11;;;;;;;29.15;10.27;;;4.20;94.30;;;4.21;79.52;100539.19;4994948;28;20537;-84
2021/01/13 06:29:39;;;;;;;25.20;10.02;;;4.20;94.40;;;4.26;78.54;100531.50;4995376;28;20050;-84
2021/01/13 06:32:28;;;;;;;20.70;10.15;;;4.20;94.50;;;4.23;79.04;100523.75;4994857;28;20097;-85
2021/01/13 06:35:27;;;;;;;23.90;9.48;;;4.20;94.60;;;4.24;78.94;100525.41;4994034;28;20051;-84
2021/01/13 06:37:58;;;;;;;26.98;10.05;;;4.30;94.50;;;4.24;79.10;100528.13;4991628;28;20066;-88
2021/01/13 06:40:25;;;;;;;19.35;9.43;;;4.40;94.60;;;4.27;78.67;100521.59;4978149;28;20250;-88
2021/01/13 06:42:52;;;;;;;21.98;9.85;;;4.30;94.50;;;4.27;79.27;100524.31;4996309;28;20038;-88
2021/01/13 06:45:32;;;;;;;21.83;9.75;;;4.30;94.50;;;4.29;79.18;100525.84;4996246;28;20057;-88
2021/01/13 06:47:59;;;;;;;23.50;9.77;;;4.40;94.60;;;4.37;79.17;100524.28;4996083;28;20081;-88
2021/01/13 06:50:38;;;;;;;25.60;11.07;;;4.50;94.60;;;4.39;78.55;100533.06;4996350;28;20053;-87
2021/01/13 06:53:10;;;;;;;26.63;10.18;;;4.40;94.40;;;4.29;79.06;100525.84;4996508;28;20042;-88
2021/01/13 06:55:38;;;;;;;22.35;9.65;;;4.50;94.50;;;4.36;79.33;100527.97;4996074;28;20096;-86
2021/01/13 06:58:11;;;;;;;26.92;10.52;;;4.40;94.30;;;4.47;79.08;100523.28;4979111;28;20088;-87
2021/01/13 07:00:38;;;;;;;22.85;10.00;;;4.40;94.40;;;4.37;78.54;100529.69;4978984;28;20042;-87
2021/01/13 07:03:29;;;;;;;27.15;11.48;;;4.40;93.90;;;4.33;78.80;100525.56;4996091;28;20111;-87
2021/01/13 07:05:57;;;;;;;25.10;10.95;;;4.40;94.00;;;4.39;78.50;100536.59;4995793;28;20465;-88
2021/01/13 07:08:24;;;;;;;22.15;10.93;;;4.40;93.90;;;4.36;78.68;100530.66;4996138;28;20515;-88
2021/01/13 07:11:02;;;;;;;24.70;12.25;;;4.40;94.00;;;4.34;78.64;100527.25;4995910;28;20078;-88
2021/01/13 07:13:32;;;;;;;26.25;12.40;;;4.40;93.80;;;4.34;78.34;100527.25;4996427;28;20060;-87
2021/01/13 07:16:01;;;;;;;26.33;11.93;;;4.40;93.80;;;4.26;78.60;100525.28;4995936;28;20038;-88
2021/01/13 07:18:29;;;;;;;23.65;12.00;;;4.40;93.60;;;4.36;78.56;100526.13;4978285;28;20133;-86
2021/01/13 07:20:56;;;;;;;22.23;11.30;;;4.40;93.70;;;4.24;78.80;100532.66;4976785;28;20074;-87
2021/01/13 07:23:23;;;;;;;24.65;11.35;;;4.40;93.50;;;4.27;78.55;100535.06;4976998;28;20511;-87
2021/01/13 07:25:51;;;;;;;29.33;12.05;;;4.40;93.40;;;4.34;77.80;100535.34;4977549;28;20081;-87
2021/01/13 07:28:18;;;;;;;23.75;11.52;;;4.40;93.40;;;4.25;78.21;100540.59;4977721;28;20144;-87
2021/01/13 07:30:45;;;;;;;24.27;11.45;;;4.30;93.10;;;4.24;78.23;100527.28;4995234;28;20439;-87
2021/01/13 07:33:14;;;;;;;25.20;12.48;;;4.30;93.20;;;4.28;78.09;100529.56;4995327;28;20077;-87
2021/01/13 07:35:46;;;;;;;30.27;10.93;;;4.30;93.40;;;4.27;78.35;100537.78;4994823;28;20088;-87
2021/01/13 07:38:15;;;;;;;26.15;10.40;;;4.30;93.40;;;4.23;77.69;100534.50;4995135;28;20138;-87
2021/01/13 07:41:01;;;;;;;27.83;10.98;;;4.30;93.40;;;4.30;77.96;100535.66;4995262;28;20074;-87
2021/01/13 07:44:38;;;;;;;29.15;11.35;;;4.20;93.10;;;4.29;77.37;100542.00;4995113;28;20042;-87
2021/01/13 07:47:19;;;;;;;24.77;11.25;;;4.20;93.10;;;4.24;77.60;100538.03;4994695;28;20131;-87
2021/01/13 07:50:15;;;;;;;26.33;11.18;;;4.20;93.20;;;4.29;77.49;100541.16;4995017;28;20098;-87
2021/01/13 07:52:49;;;;;;;26.83;10.77;;;4.20;93.40;;;4.19;78.02;100541.19;4988903;28;20089;-87
2021/01/13 07:55:18;;;;;;;26.05;10.75;;;4.20;93.30;;;4.18;77.79;100536.78;4994594;28;20045;-87
2021/01/13 07:57:51;;;;;;;24.30;10.23;;;4.20;93.40;;;4.23;77.91;100536.38;4994869;28;20404;-87
2021/01/13 08:00:28;;;;;;;25.13;10.63;;;4.10;93.40;;;4.20;77.59;100542.88;4994795;28;20749;-87
2021/01/13 08:03:58;;;;;;;24.88;9.80;;;4.10;93.40;;;4.23;77.71;100536.38;4977262;28;20045;-87
2021/01/13 08:06:32;;;;;;;22.75;9.88;;;4.10;93.50;;;4.30;77.48;100537.47;4994509;28;20042;-89
2021/01/13 08:09:14;;;;;;;19.40;9.40;;;4.20;93.60;;;4.30;77.89;100543.72;4977893;28;20046;-88
2021/01/13 08:12:28;;;;;;;24.13;9.57;;;4.20;93.70;;;4.21;78.17;100549.97;4995151;28;20077;-90
2021/01/13 08:15:45;;;;;;;25.42;10.73;;;4.20;93.60;;;4.24;78.23;100555.06;4964837;28;20057;-86
2021/01/13 08:19:27;;;;;;;21.40;9.38;;;4.20;93.60;;;4.24;77.81;100557.75;4983525;28;20058;-86
2021/01/13 08:22:01;;;;;;;;;;;4.20;93.60;;;4.28;78.12;100556.50;4975383;28;20039;-86
2021/01/13 08:24:50;;;;;;;22.50;9.85;;;4.20;93.60;;;4.30;78.15;100554.50;4980753;28;19928;-86
2021/01/13 08:27:30;;;;;;;23.73;9.52;;;4.20;93.70;;;4.29;78.29;100552.78;4993653;28;20050;-86
2021/01/13 08:29:59;;;;;;;23.17;9.30;;;4.30;94.10;;;4.29;78.50;100557.34;4994253;28;20050;-86
2021/01/13 08:32:41;;;;;;;22.02;10.10;;;4.30;93.90;;;4.35;78.16;100558.59;4993751;28;20042;-86
2021/01/13 08:35:09;;;;;;;25.48;9.23;;;4.30;93.90;;;4.30;77.86;100559.88;4992210;28;20070;-86
2021/01/13 08:37:37;;;;;;;19.48;10.00;;;4.40;93.80;;;4.31;78.38;100561.56;4993712;28;20109;-86
2021/01/13 08:40:28;;;;;;;27.58;9.75;;;4.40;93.50;;;4.36;78.27;100557.59;4995790;28;20050;-87
2021/01/13 08:43:11;;;;;;;25.00;9.35;;;4.40;93.40;;;4.37;78.50;100559.31;4981684;28;20503;-86
2021/01/13 08:45:42;;;;;;;20.23;9.05;;;4.40;93.30;;;4.36;77.75;100565.69;4994232;28;20065;-87
2021/01/13 08:48:12;;;;;;;27.63;9.43;;;4.40;93.40;;;4.34;78.20;100567.66;4993691;28;20042;-87
2021/01/13 08:50:40;;;;;;;22.25;9.05;;;4.40;93.40;;;4.35;78.02;100562.13;4993218;28;20049;-87
2021/01/13 08:53:21;;;;;;;25.42;10.07;;;4.50;93.50;;;4.35;78.23;100556.75;4974445;28;20045;-88
2021/01/13 08:55:53;;;;;;;23.07;9.60;;;4.50;93.40;;;4.41;78.60;100563.41;4974125;28;20066;-88
2021/01/13 08:58:28;;;;;;;27.67;10.32;;;4.50;93.10;;;4.43;78.26;100562.25;4974352;28;20049;-88
2021/01/13 09:01:02;;;;;;;21.27;9.88;;;4.50;93.10;;;4.42;77.68;100562.44;4985107;28;20100;-87
2021/01/13 09:03:36;;;;;;;25.00;10.70;;;4.50;93.30;;;4.42;77.79;100557.03;4975629;28;20082;-88
2021/01/13 09:06:20;;;;;;;25.90;10.27;;;4.40;93.10;;;4.46;77.56;100563.84;4993479;28;20085;-87
2021/01/13 09:08:48;;;;;;;25.60;10.77;;;4.40;93.00;;;4.44;77.51;100563.13;4993253;28;20043;-87
2021/01/13 09:11:32;;;;;;;23.67;11.23;;;4.50;93.10;;;4.48;77.93;100554.59;4993620;28;20093;-87
2021/01/13 09:14:18;;;;;;;25.08;10.90;;;4.40;93.30;;;4.52;77.77;100555.19;4974050;28;20042;-87
2021/01/13 09:16:49;;;;;;;28.38;10.63;;;4.50;93.50;;;4.55;77.86;100557.59;4988042;28;20061;-87
2021/01/13 09:19:37;;;;;;;26.97;10.63;;;4.50;93.50;;;4.60;78.14;100554.44;4978724;28;20117;-87
2021/01/13 09:22:07;;;;;;;24.15;9.73;;;4.50;93.60;;;4.56;78.18;100548.50;4973853;28;20050;-87
2021/01/13 09:24:37;;;;;;;24.10;10.50;;;4.60;93.30;;;4.57;77.84;100552.03;4973999;28;20046;-87
2021/01/13 09:27:08;;;;;;;26.30;11.30;;;4.60;93.30;;;4.53;77.80;100551.47;4956544;28;20591;-87
2021/01/13 09:29:49;;;;;;;23.67;10.07;;;4.60;93.20;;;4.58;77.63;100551.91;4973740;28;20341;-87
2021/01/13 09:32:17;;;;;;;20.27;9.83;;;4.60;93.10;;;4.59;78.00;100542.81;4973740;28;20067;-87
2021/01/13 09:34:44;;;;;;;25.70;9.70;;;4.60;93.10;;;4.60;77.78;100549.91;4988343;28;20336;-87
2021/01/13 09:37:12;;;;;;;22.08;10.75;;;4.60;93.20;;;4.64;77.88;100551.31;4992631;28;20039;-87
2021/01/13 09:39:41;;;;;;;23.77;8.90;;;4.60;93.30;;;4.67;78.23;100551.03;4993109;28;20042;-88
2021/01/13 09:42:09;;;;;;;27.65;10.63;;;4.60;93.50;;;4.67;78.25;100556.41;4993174;28;20486;-87
2021/01/13 09:44:38;;;;;;;27.98;9.45;;;4.70;93.50;;;4.67;78.46;100548.34;4992973;28;20044;-88
2021/01/13 09:47:24;;;;;;;24.60;10.15;;;4.80;93.50;;;4.76;78.24;100548.44;4992698;28;20077;-87
2021/01/13 09:49:55;;;;;;;26.63;10.15;;;4.80;93.50;;;4.74;78.72;100556.69;4993041;28;20042;-88
2021/01/13 09:52:23;;;;;;;26.55;10.90;;;4.90;93.70;;;4.73;78.52;100555.00;4992748;28;20089;-87
2021/01/13 09:54:52;;;;;;;20.55;9.95;;;4.90;93.50;;;4.81;78.76;100554.25;4992665;28;20074;-87
2021/01/13 09:57:21;;;;;;;21.83;10.13;;;4.90;93.50;;;4.82;78.50;100558.66;4992094;28;20039;-87
2021/01/13 10:00:00;;;;;;;30.48;12.10;;;5.00;93.40;;;4.86;78.30;100562.75;4992105;28;20422;-88
2021/01/13 10:02:28;;;;;;;20.50;9.90;;;5.00;93.40;;;4.82;78.43;100554.13;4975882;28;20046;-88
2021/01/13 10:04:55;;;;;;;21.27;10.20;;;5.00;93.30;;;4.86;78.57;100550.13;4973203;28;20058;-88
2021/01/13 10:07:29;;;;;;;24.73;9.70;;;5.00;93.20;;;4.81;78.31;100551.56;4986369;28;20766;-87
2021/01/13 10:09:56;;;;;;;22.38;9.95;;;5.00;93.20;;;4.76;78.77;100559.22;4992764;28;20045;-87
2021/01/13 10:12:37;;;;;;;28.23;10.85;;;5.10;92.90;;;4.82;78.86;100553.28;4993059;28;20093;-87
2021/01/13 10:15:07;;;;;;;23.65;10.75;;;5.10;93.00;;;4.82;78.67;100553.28;4995809;28;20698;-84
2021/01/13 10:17:35;;;;;;;30.63;10.55;;;5.10;92.90;;;4.87;78.81;100556.34;4993722;28;20042;-86
2021/01/13 10:20:15;;;;;;;25.27;10.50;;;5.20;92.90;;;4.87;78.72;100556.34;4993144;28;20093;-85
2021/01/13 10:22:43;;;;;;;23.90;10.48;;;5.20;92.70;;;4.86;79.20;100555.53;4974940;28;20051;-86
2021/01/13 10:25:12;;;;;;;26.10;11.38;;;5.20;92.80;;;4.93;78.95;100549.53;4975176;28;20412;-86
2021/01/13 10:27:44;;;;;;;24.13;9.82;;;5.20;92.70;;;4.94;78.96;100556.63;4978468;28;20054;-86
2021/01/13 10:30:13;;;;;;;22.92;10.82;;;5.20;92.50;;;4.97;78.95;100554.50;4993750;28;20168;-86
2021/01/13 10:32:51;;;;;;;24.73;11.40;;;5.20;92.70;;;5.01;78.68;100553.19;4993492;28;20042;-86
2021/01/13 10:35:20;;;;;;;22.23;12.48;;;5.30;92.90;;;4.98;79.09;100541.84;4990462;28;20034;-86
2021/01/13 10:37:52;;;;;;;25.05;12.40;;;5.30;92.60;;;5.03;79.03;100548.50;5004017;28;20046;-86
2021/01/13 10:40:21;;;;;;;29.25;12.70;;;5.30;92.90;;;5.01;79.23;100545.13;4975721;28;20057;-86
2021/01/13 10:42:52;;;;;;;21.20;11.90;;;5.40;92.90;;;5.01;79.15;100537.03;5002149;28;20034;-86
2021/01/13 10:45:21;;;;;;;26.20;12.90;;;5.50;92.90;;;5.00;79.92;100535.31;5010857;28;20046;-86
2021/01/13 10:47:56;;;;;;;24.27;12.70;;;5.50;92.80;;;5.12;79.51;100527.03;4995540;28;20088;-87
2021/01/13 10:50:25;;;;;;;27.55;13.13;;;5.50;93.00;;;5.14;79.60;100525.91;5003014;28;20042;-87
2021/01/13 10:52:55;;;;;;;26.33;13.70;;;5.60;92.90;;;5.20;79.63;100529.84;4995881;28;20046;-86